Time;durP1;ratioP1;P1;durP2;ratioP2;P2;SDS_P1;SDS_P2;PMS_P1;PMS_P2;Temp;Humidity;BMP_temperature;BMP_pressure;BME280_temperature;BME280_humidity;BME280_pressure;Samples;Min_cycle;Max_cycle;Signal;HPM_P1;HPM_P2
2023/05/16 00:01:38;;;;;;;3.03;2.20;;;;;;;11.63;100.00;97217.16;5128115;27;20538;-93
2023/05/16 00:04:04;;;;;;;3.22;2.10;;;;;;;11.45;100.00;97181.75;5124150;27;20043;-94
2023/05/16 00:06:30;;;;;;;3.10;2.00;;;;;;;11.61;100.00;97173.78;5121249;27;20051;-95
2023/05/16 00:08:56;;;;;;;2.85;1.85;;;;;;;11.58;100.00;97156.19;5114157;28;20043;-95
2023/05/16 00:11:22;;;;;;;2.90;1.95;;;;;;;11.83;100.00;97179.59;5118208;27;20139;-93
2023/05/16 00:13:48;;;;;;;2.85;2.10;;;;;;;11.71;100.00;97137.72;5119804;27;20054;-93
2023/05/16 00:16:16;;;;;;;3.38;1.90;;;;;;;11.77;100.00;97131.16;5117155;27;20043;-94
2023/05/16 00:18:44;;;;;;;2.75;2.03;;;;;;;11.86;100.00;97142.16;5127763;27;20377;-92
2023/05/16 00:21:10;;;;;;;2.85;2.10;;;;;;;12.01;100.00;97152.88;5129602;27;20492;-94
2023/05/16 00:23:36;;;;;;;2.45;1.70;;;;;;;11.91;100.00;97140.09;5124022;27;20035;-94
2023/05/16 00:26:02;;;;;;;2.10;1.75;;;;;;;11.90;100.00;97138.38;5106355;28;20112;-94
2023/05/16 00:28:29;;;;;;;2.10;1.80;;;;;;;11.89;100.00;97127.81;5123416;27;20055;-95
2023/05/16 00:30:55;;;;;;;2.15;1.80;;;;;;;11.83;100.00;97113.00;5140873;27;20047;-94
2023/05/16 00:33:22;;;;;;;2.42;1.80;;;;;;;11.76;100.00;97117.00;5135024;27;20039;-93
2023/05/16 00:35:48;;;;;;;2.03;1.75;;;;;;;11.86;100.00;97114.63;5122476;27;20438;-96
2023/05/16 00:38:14;;;;;;;3.65;1.75;;;;;;;11.86;100.00;97104.88;5122413;27;20038;-95
2023/05/16 00:40:40;;;;;;;2.92;1.80;;;;;;;11.94;100.00;97100.91;5137042;27;20076;-94
2023/05/16 00:43:06;;;;;;;1.63;1.50;;;;;;;12.01;100.00;97105.75;5128451;27;20047;-94
2023/05/16 00:45:32;;;;;;;2.83;1.80;;;;;;;11.83;100.00;97073.06;5134892;27;20133;-94
2023/05/16 00:47:58;;;;;;;2.42;1.67;;;;;;;11.96;100.00;97094.53;5117922;27;20111;-93
2023/05/16 00:50:26;;;;;;;3.00;1.77;;;;;;;11.91;100.00;97067.34;5115589;28;20048;-95
2023/05/16 00:52:52;;;;;;;2.10;1.90;;;;;;;11.94;100.00;97069.81;5118043;28;20120;-93
2023/05/16 00:55:18;;;;;;;2.20;1.60;;;;;;;11.91;100.00;97062.00;5128420;27;20137;-95
2023/05/16 00:57:44;;;;;;;2.00;1.60;;;;;;;12.09;100.00;97108.00;5115944;28;20047;-95
2023/05/16 01:00:14;;;;;;;2.05;1.55;;;;;;;12.02;100.00;97083.53;5109193;28;20078;-95
2023/05/16 01:02:40;;;;;;;1.77;1.60;;;;;;;12.16;100.00;97092.50;5120224;27;20053;-94
2023/05/16 01:05:07;;;;;;;3.08;1.50;;;;;;;12.06;100.00;97070.88;5115924;28;20050;-93
2023/05/16 01:07:35;;;;;;;1.60;1.30;;;;;;;12.18;100.00;97085.25;5112209;28;20475;-95
2023/05/16 01:10:02;;;;;;;2.17;1.50;;;;;;;11.98;100.00;97049.16;5118200;28;20146;-96
2023/05/16 01:12:36;;;;;;;1.60;1.50;;;;;;;12.06;100.00;97074.41;5131015;27;20038;-94
2023/05/16 01:15:07;;;;;;;1.23;1.20;;;;;;;11.95;100.00;97046.69;5139577;27;20043;-92
2023/05/16 01:17:40;;;;;;;1.50;1.40;;;;;;;12.03;100.00;97061.25;5117887;28;20382;-94
2023/05/16 01:20:14;;;;;;;1.63;1.50;;;;;;;12.12;100.00;97071.38;5114698;28;20040;-93
2023/05/16 01:22:59;;;;;;;1.50;1.40;;;;;;;12.09;100.00;97076.88;5115437;28;20047;-94
2023/05/16 01:25:37;;;;;;;2.15;1.60;;;;;;;11.92;100.00;97029.94;5119277;28;20074;-94
2023/05/16 01:28:06;;;;;;;1.98;1.30;;;;;;;12.04;100.00;97051.47;5119287;28;20035;-94
2023/05/16 01:30:34;;;;;;;1.80;1.50;;;;;;;11.98;100.00;97023.38;5117991;28;20054;-94
2023/05/16 01:33:00;;;;;;;1.48;1.38;;;;;;;11.94;100.00;97016.53;5118201;28;20495;-93
2023/05/16 01:35:26;;;;;;;1.70;1.38;;;;;;;11.95;100.00;97010.25;5118435;28;20072;-93
2023/05/16 01:37:58;;;;;;;1.80;1.42;;;;;;;12.08;100.00;97013.03;5111747;28;20055;-94
2023/05/16 01:40:30;;;;;;;2.17;1.23;;;;;;;11.97;100.00;96995.03;5109573;28;20051;-93
2023/05/16 01:43:03;;;;;;;2.08;1.30;;;;;;;11.92;100.00;96981.13;5113904;27;20107;-93
2023/05/16 01:45:33;;;;;;;1.92;1.30;;;;;;;11.98;100.00;96964.78;5117512;28;20134;-95
2023/05/16 01:48:05;;;;;;;1.27;1.10;;;;;;;12.10;100.00;96958.69;5135410;27;20039;-93
2023/05/16 01:50:34;;;;;;;1.85;1.15;;;;;;;12.26;100.00;96965.72;5120104;28;20075;-94
2023/05/16 01:53:08;;;;;;;1.63;1.13;;;;;;;12.24;100.00;96956.97;5115322;28;20071;-94
2023/05/16 01:55:41;;;;;;;2.67;1.35;;;;;;;12.08;100.00;96944.63;5114983;28;20044;-93
2023/05/16 01:58:10;;;;;;;1.40;1.30;;;;;;;12.02;100.00;96939.66;5124776;27;20039;-94
2023/05/16 02:00:37;;;;;;;1.20;1.10;;;;;;;12.04;100.00;96923.59;5119781;28;20039;-94
2023/05/16 02:03:03;;;;;;;2.58;1.08;;;;;;;12.20;100.00;96944.78;5124714;27;20389;-94
2023/05/16 02:05:29;;;;;;;1.30;1.20;;;;;;;12.27;100.00;96946.09;5123368;27;20032;-94
2023/05/16 02:07:55;;;;;;;2.08;1.00;;;;;;;12.20;100.00;96928.81;5128764;27;20046;-93
2023/05/16 02:10:22;;;;;;;2.38;1.30;;;;;;;12.29;100.00;96942.38;5134020;27;20518;-93
2023/05/16 02:12:50;;;;;;;3.28;1.10;;;;;;;12.38;100.00;96946.28;5103997;28;20040;-94
2023/05/16 02:15:16;;;;;;;1.33;1.20;;;;;;;12.29;100.00;96930.88;5119752;27;20046;-94
2023/05/16 02:17:43;;;;;;;2.50;1.20;;;;;;;12.33;100.00;96943.06;5125775;27;20035;-95
2023/05/16 02:20:10;;;;;;;1.25;1.00;;;;;;;12.36;100.00;96942.00;5126810;27;20054;-95
2023/05/16 02:22:38;;;;;;;2.70;1.00;;;;;;;12.41;100.00;96935.44;5115861;27;20046;-95
2023/05/16 02:25:04;;;;;;;1.40;1.10;;;;;;;12.19;100.00;96897.75;5114402;27;20039;-94
2023/05/16 02:27:30;;;;;;;1.40;1.00;;;;;;;12.38;100.00;96919.63;5124311;27;20054;-93
2023/05/16 02:29:56;;;;;;;1.05;0.98;;;;;;;12.24;100.00;96885.88;5129962;27;20051;-93
2023/05/16 02:32:23;;;;;;;1.00;0.90;;;;;;;12.25;100.00;96895.59;5132071;27;20041;-94
2023/05/16 02:34:50;;;;;;;1.30;1.00;;;;;;;12.30;100.00;96879.31;5124010;27;20492;-94
2023/05/16 02:37:16;;;;;;;1.13;1.02;;;;;;;12.33;100.00;96871.94;5127863;27;20047;-93
2023/05/16 02:39:43;;;;;;;1.20;1.10;;;;;;;12.46;100.00;96898.66;5123517;27;20492;-96
2023/05/16 02:42:09;;;;;;;1.95;1.10;;;;;;;12.38;100.00;96882.31;5117991;27;20054;-94
2023/05/16 02:44:35;;;;;;;1.10;0.90;;;;;;;12.41;100.00;96887.47;5119887;27;20046;-93
2023/05/16 02:47:01;;;;;;;1.20;1.00;;;;;;;12.37;100.00;96880.63;5130967;27;20046;-94
2023/05/16 02:49:27;;;;;;;0.80;0.80;;;;;;;12.38;100.00;96868.13;5118009;27;20058;-93
2023/05/16 02:51:54;;;;;;;2.67;1.17;;;;;;;12.26;100.00;96854.66;5122282;27;20478;-95
2023/05/16 02:54:20;;;;;;;1.05;1.05;;;;;;;12.24;100.00;96848.56;5125274;27;20047;-95
2023/05/16 02:56:46;;;;;;;3.00;1.10;;;;;;;12.15;100.00;96859.81;5125804;27;20031;-95
2023/05/16 02:59:12;;;;;;;0.90;0.90;;;;;;;12.08;100.00;96851.38;5124936;27;20061;-95
2023/05/16 03:01:39;;;;;;;0.93;0.75;;;;;;;12.32;100.00;96885.41;5118480;27;20400;-94
2023/05/16 03:04:05;;;;;;;1.10;0.80;;;;;;;12.23;100.00;96864.63;5118104;28;20394;-95
2023/05/16 03:06:31;;;;;;;1.00;0.80;;;;;;;12.01;100.00;96833.19;5117407;28;20077;-96
2023/05/16 03:08:58;;;;;;;1.15;0.80;;;;;;;12.18;100.00;96853.44;5121905;28;20107;-93
2023/05/16 03:11:27;;;;;;;2.00;0.75;;;;;;;12.08;100.00;96838.06;5112288;28;20082;-95
2023/05/16 03:13:53;;;;;;;0.80;0.80;;;;;;;12.05;100.00;96838.22;5117277;28;20078;-91
2023/05/16 03:16:20;;;;;;;1.13;0.70;;;;;;;12.05;100.00;96816.06;5111315;28;20047;-95
2023/05/16 03:18:46;;;;;;;1.55;0.70;;;;;;;12.02;100.00;96818.94;5112885;27;20040;-94
2023/05/16 03:21:12;;;;;;;0.60;0.60;;;;;;;12.10;100.00;96808.63;5113666;27;20062;-92
2023/05/16 03:23:38;;;;;;;0.80;0.80;;;;;;;12.26;100.00;96827.16;5120541;27;20054;-93
2023/05/16 03:26:05;;;;;;;0.82;0.80;;;;;;;12.25;100.00;96825.44;5111612;28;20048;-93
2023/05/16 03:28:31;;;;;;;1.20;0.70;;;;;;;12.11;100.00;96802.34;5121148;27;20381;-94
2023/05/16 03:30:57;;;;;;;1.95;0.80;;;;;;;12.19;100.00;96805.38;5120600;27;20144;-92
2023/05/16 03:33:23;;;;;;;1.00;0.70;;;;;;;12.34;100.00;96832.84;5119325;27;20045;-95
2023/05/16 03:35:49;;;;;;;1.13;0.70;;;;;;;12.26;100.00;96814.69;5119894;27;20035;-95
2023/05/16 03:38:16;;;;;;;0.65;0.65;;;;;;;12.21;100.00;96800.81;5114410;27;20139;-92
2023/05/16 03:40:42;;;;;;;1.02;0.77;;;;;;;12.23;100.00;96798.03;5137823;27;20038;-95
2023/05/16 03:43:09;;;;;;;2.53;0.75;;;;;;;12.23;100.00;96792.69;5126703;27;20067;-93
2023/05/16 03:45:35;;;;;;;0.95;0.70;;;;;;;12.31;100.00;96795.72;5120345;27;20040;-94
2023/05/16 03:48:01;;;;;;;0.77;0.77;;;;;;;12.54;100.00;96828.88;5121040;27;20043;-93
2023/05/16 03:50:27;;;;;;;0.63;0.60;;;;;;;12.43;100.00;96810.91;5122148;27;20043;-95
2023/05/16 03:52:53;;;;;;;0.57;0.57;;;;;;;12.33;100.00;96793.81;5120586;27;20043;-93
2023/05/16 03:55:19;;;;;;;0.63;0.63;;;;;;;12.39;100.00;96809.41;5121412;27;20054;-95
2023/05/16 03:57:46;;;;;;;0.70;0.60;;;;;;;12.45;100.00;96809.00;5111567;28;20082;-94
2023/05/16 04:00:15;;;;;;;0.60;0.60;;;;;;;12.64;100.00;96829.97;5113815;28;20052;-92
2023/05/16 04:02:41;;;;;;;0.88;0.88;;;;;;;12.46;100.00;96776.03;5122104;27;20039;-94
2023/05/16 04:05:09;;;;;;;0.60;0.60;;;;;;;12.45;100.00;96778.84;5111503;28;20047;-95
2023/05/16 04:07:35;;;;;;;0.60;0.60;;;;;;;12.56;100.00;96788.78;5115203;27;20043;-93
2023/05/16 04:10:01;;;;;;;0.70;0.70;;;;;;;12.66;100.00;96787.19;5113899;27;20047;-92
2023/05/16 04:12:27;;;;;;;1.05;0.60;;;;;;;12.75;100.00;96799.91;5117834;27;20134;-93
2023/05/16 04:14:53;;;;;;;0.73;0.73;;;;;;;12.53;100.00;96764.03;5124261;27;20059;-93
2023/05/16 04:17:20;;;;;;;0.50;0.50;;;;;;;12.65;100.00;96781.00;5118873;27;20508;-92
2023/05/16 04:19:46;;;;;;;0.50;0.50;;;;;;;12.52;100.00;96748.97;5121589;27;20043;-92
2023/05/16 04:22:12;;;;;;;0.73;0.70;;;;;;;12.68;100.00;96769.28;5120869;27;20080;-94
2023/05/16 04:24:38;;;;;;;4.03;0.55;;;;;;;12.71;100.00;96764.59;5108176;27;20471;-92
2023/05/16 04:27:07;;;;;;;1.85;0.60;;;;;;;12.62;100.00;96753.69;5125610;27;20088;-94
2023/05/16 04:29:33;;;;;;;2.72;0.80;;;;;;;12.79;100.00;96777.41;5120844;27;20036;-94
2023/05/16 04:31:59;;;;;;;1.08;0.60;;;;;;;12.62;100.00;96733.22;5121239;27;20046;-93
2023/05/16 04:34:27;;;;;;;0.52;0.50;;;;;;;12.58;100.00;96737.06;5116686;27;20046;-91
2023/05/16 04:36:52;;;;;;;1.25;0.77;;;;;;;12.70;100.00;96760.22;5112162;27;20464;-93
2023/05/16 04:39:19;;;;;;;0.70;0.70;;;;;;;12.63;100.00;96756.25;5119548;27;20074;-90
2023/05/16 04:41:45;;;;;;;0.85;0.70;;;;;;;12.74;100.00;96747.53;5120852;27;20106;-92
2023/05/16 04:44:11;;;;;;;0.60;0.60;;;;;;;12.86;100.00;96760.03;5125062;27;20512;-94
2023/05/16 04:46:36;;;;;;;1.92;0.80;;;;;;;12.66;100.00;96729.38;5129002;27;20063;-93
2023/05/16 04:49:02;;;;;;;0.90;0.90;;;;;;;12.64;100.00;96760.66;5112903;27;20039;-93
2023/05/16 04:51:31;;;;;;;0.90;0.80;;;;;;;12.78;100.00;96770.38;5120351;27;20469;-92
2023/05/16 04:53:57;;;;;;;0.70;0.70;;;;;;;12.69;100.00;96739.00;5127340;27;20134;-90
2023/05/16 04:56:23;;;;;;;0.60;0.60;;;;;;;12.52;100.00;96738.31;5129552;27;20125;-93
2023/05/16 04:58:48;;;;;;;1.38;1.00;;;;;;;12.54;100.00;96741.72;5121303;27;20116;-93
2023/05/16 05:01:15;;;;;;;1.95;0.80;;;;;;;12.46;100.00;96727.22;5118000;27;20309;-92
2023/05/16 05:03:41;;;;;;;0.70;0.65;;;;;;;12.73;100.00;96743.16;5117993;27;20048;-93
2023/05/16 05:06:07;;;;;;;2.50;0.90;;;;;;;12.62;100.00;96719.91;5118211;27;20047;-92
2023/05/16 05:08:34;;;;;;;1.05;0.55;;;;;;;12.91;100.00;96747.22;5117639;28;20036;-90
2023/05/16 05:11:00;;;;;;;1.83;1.02;;;;;;;13.05;100.00;96742.75;5137040;27;20507;-93
2023/05/16 05:13:26;;;;;;;0.95;0.70;;;;;;;12.98;100.00;96722.78;5125700;27;20131;-93
2023/05/16 05:15:52;;;;;;;1.42;0.60;;;;;;;12.91;100.00;96693.88;5115123;28;20040;-92
2023/05/16 05:18:18;;;;;;;0.80;0.80;;;;;;;13.10;100.00;96721.94;5117707;28;20130;-92
2023/05/16 05:20:44;;;;;;;0.77;0.68;;;;;;;13.00;100.00;96723.53;5117488;27;20058;-90
2023/05/16 05:23:10;;;;;;;0.80;0.80;;;;;;;12.82;100.00;96696.34;5118068;27;20050;-92
2023/05/16 05:25:38;;;;;;;1.35;0.70;;;;;;;13.10;100.00;96730.81;5120703;28;20556;-93
2023/05/16 05:28:04;;;;;;;2.05;0.88;;;;;;;13.22;100.00;96725.56;5121569;27;20032;-94
2023/05/16 05:30:30;;;;;;;2.42;0.80;;;;;;;13.22;100.00;96710.38;5118100;27;20036;-92
2023/05/16 05:32:55;;;;;;;0.93;0.70;;;;;;;13.52;100.00;96720.72;5124806;27;20039;-92
2023/05/16 05:35:21;;;;;;;2.50;0.98;;;;;;;13.40;100.00;96696.72;5126202;27;20053;-92
2023/05/16 05:37:47;;;;;;;1.05;0.95;;;;;;;13.66;100.00;96716.22;5122789;27;20031;-92
2023/05/16 05:40:15;;;;;;;0.85;0.70;;;;;;;13.83;100.00;96696.28;5124921;27;20047;-91
2023/05/16 05:42:42;;;;;;;2.95;0.80;;;;;;;14.06;100.00;96698.13;5127794;27;20027;-91
2023/05/16 05:45:08;;;;;;;1.85;0.90;;;;;;;14.27;100.00;96701.03;5121904;27;20039;-92
2023/05/16 05:47:34;;;;;;;0.90;0.80;;;;;;;14.17;100.00;96706.19;5124418;27;20065;-92
2023/05/16 05:50:01;;;;;;;1.13;1.02;;;;;;;14.63;100.00;96695.69;5118312;27;20044;-93
2023/05/16 05:52:27;;;;;;;1.85;0.90;;;;;;;14.55;100.00;96689.13;5114517;27;20458;-94
2023/05/16 05:54:53;;;;;;;2.85;0.80;;;;;;;14.90;100.00;96693.56;5120724;27;20043;-92
2023/05/16 05:57:20;;;;;;;0.90;0.90;;;;;;;15.12;97.92;96687.38;5121549;27;20035;-93
2023/05/16 05:59:47;;;;;;;1.17;0.63;;;;;;;15.19;95.69;96674.38;5119446;27;20116;-92
2023/05/16 06:02:13;;;;;;;0.70;0.70;;;;;;;15.34;96.15;96683.84;5115764;27;20138;-92
2023/05/16 06:04:41;;;;;;;1.67;0.85;;;;;;;15.35;96.20;96708.81;5116131;27;20040;-93
2023/05/16 06:07:07;;;;;;;1.25;0.73;;;;;;;15.33;95.40;96700.91;5115029;27;20047;-92
2023/05/16 06:09:33;;;;;;;0.60;0.60;;;;;;;15.34;95.09;96699.06;5120244;27;20039;-92
2023/05/16 06:11:59;;;;;;;0.90;0.85;;;;;;;15.41;95.99;96703.81;5114743;27;20404;-92
2023/05/16 06:14:25;;;;;;;1.27;0.80;;;;;;;15.81;92.62;96703.31;5124701;27;20062;-93
2023/05/16 06:16:52;;;;;;;0.55;0.55;;;;;;;15.56;95.07;96695.53;5120804;27;20050;-91
2023/05/16 06:19:18;;;;;;;1.00;0.90;;;;;;;15.75;95.26;96673.50;5113849;27;20036;-92
2023/05/16 06:21:44;;;;;;;1.00;1.00;;;;;;;16.23;90.86;96695.41;5109841;27;20036;-93
2023/05/16 06:24:11;;;;;;;1.35;0.80;;;;;;;16.17;92.79;96676.28;5125604;27;20047;-94
2023/05/16 06:26:36;;;;;;;0.80;0.80;;;;;;;16.10;93.01;96694.72;5115624;27;20059;-93
2023/05/16 06:29:02;;;;;;;1.05;0.82;;;;;;;16.07;90.16;96681.59;5117665;27;20085;-91
2023/05/16 06:31:30;;;;;;;1.35;1.00;;;;;;;15.95;93.76;96685.25;5114061;27;20042;-94
2023/05/16 06:33:57;;;;;;;1.77;1.00;;;;;;;15.35;94.12;96704.31;5121697;27;20055;-91
2023/05/16 06:36:23;;;;;;;1.25;0.90;;;;;;;15.26;96.90;96710.38;5118854;27;20054;-92
2023/05/16 06:38:49;;;;;;;1.25;0.93;;;;;;;15.09;98.30;96701.00;5122191;27;20082;-93
2023/05/16 06:41:15;;;;;;;3.08;1.38;;;;;;;15.07;98.89;96700.28;5115113;27;20039;-92
2023/05/16 06:43:41;;;;;;;2.20;0.85;;;;;;;14.97;98.74;96699.31;5119741;27;20397;-91
2023/05/16 06:46:07;;;;;;;2.17;0.85;;;;;;;14.96;98.59;96690.44;5119188;27;20044;-91
2023/05/16 06:48:33;;;;;;;1.55;0.95;;;;;;;15.11;97.86;96699.06;5119953;27;20127;-92
2023/05/16 06:51:00;;;;;;;0.85;0.77;;;;;;;14.78;100.00;96698.03;5124609;27;20062;-91
2023/05/16 06:53:26;;;;;;;2.17;0.90;;;;;;;14.71;100.00;96695.97;5112521;27;20126;-92
2023/05/16 06:55:52;;;;;;;1.05;0.80;;;;;;;14.82;100.00;96709.38;5113529;27;20047;-91
2023/05/16 06:58:18;;;;;;;1.33;1.00;;;;;;;14.89;100.00;96707.91;5121118;27;20049;-92
2023/05/16 07:00:44;;;;;;;1.58;0.80;;;;;;;14.79;100.00;96718.50;5113073;27;20040;-93
2023/05/16 07:03:10;;;;;;;0.70;0.70;;;;;;;14.65;99.89;96693.75;5122051;27;20761;-91
2023/05/16 07:05:36;;;;;;;2.20;0.88;;;;;;;14.74;100.00;96704.59;5125366;27;20495;-91
2023/05/16 07:08:03;;;;;;;1.30;0.80;;;;;;;14.66;100.00;96695.44;5112050;27;20047;-92
2023/05/16 07:10:29;;;;;;;1.38;1.02;;;;;;;14.84;100.00;96706.59;5113561;27;20047;-93
2023/05/16 07:12:55;;;;;;;0.85;0.80;;;;;;;14.94;100.00;96703.06;5121396;27;20043;-92
2023/05/16 07:15:21;;;;;;;4.05;0.80;;;;;;;14.97;100.00;96731.41;5121622;27;20449;-94
2023/05/16 07:17:47;;;;;;;1.10;0.70;;;;;;;14.69;100.00;96711.28;5120397;27;20124;-91
2023/05/16 07:20:13;;;;;;;0.77;0.77;;;;;;;14.77;100.00;96707.03;5126148;27;20429;-93
2023/05/16 07:22:39;;;;;;;0.93;0.90;;;;;;;14.50;100.00;96688.56;5121403;27;20069;-91
2023/05/16 07:25:11;;;;;;;1.20;0.77;;;;;;;14.77;100.00;96709.72;5127191;27;20072;-92
2023/05/16 07:27:37;;;;;;;2.92;1.00;;;;;;;14.82;100.00;96716.53;5121375;27;20036;-91
2023/05/16 07:30:04;;;;;;;0.85;0.60;;;;;;;14.74;100.00;96707.25;5126866;27;20070;-93
2023/05/16 07:32:30;;;;;;;2.40;0.80;;;;;;;14.83;100.00;96702.19;5124864;27;20054;-93
2023/05/16 07:34:56;;;;;;;0.80;0.80;;;;;;;14.79;100.00;96723.84;5125399;27;20496;-92
2023/05/16 07:37:22;;;;;;;1.33;0.70;;;;;;;14.58;100.00;96725.47;5124561;27;20043;-92
2023/05/16 07:39:47;;;;;;;1.30;0.80;;;;;;;14.39;100.00;96715.28;5124062;27;20031;-91
2023/05/16 07:42:15;;;;;;;0.55;0.55;;;;;;;14.43;100.00;96735.47;5121969;27;20066;-92
2023/05/16 07:44:41;;;;;;;3.95;0.80;;;;;;;14.47;100.00;96739.63;5126587;27;20039;-93
2023/05/16 07:47:06;;;;;;;0.60;0.60;;;;;;;14.46;100.00;96735.22;5121217;27;20050;-91
2023/05/16 07:49:32;;;;;;;2.47;0.70;;;;;;;14.27;100.00;96727.75;5127071;27;20392;-90
2023/05/16 07:51:58;;;;;;;0.70;0.70;;;;;;;14.42;100.00;96740.94;5121979;27;20092;-91
2023/05/16 07:54:24;;;;;;;0.88;0.55;;;;;;;14.25;100.00;96751.06;5123251;27;20386;-92
2023/05/16 07:56:50;;;;;;;0.90;0.70;;;;;;;14.16;100.00;96733.91;5116796;27;20123;-91
2023/05/16 07:59:17;;;;;;;0.73;0.70;;;;;;;14.31;100.00;96761.31;5120001;27;20031;-93
2023/05/16 08:01:43;;;;;;;0.68;0.68;;;;;;;14.12;100.00;96755.63;5116919;27;20038;-92
2023/05/16 08:04:09;;;;;;;0.63;0.52;;;;;;;14.13;100.00;96754.66;5121799;27;20039;-92
2023/05/16 08:06:35;;;;;;;0.73;0.70;;;;;;;14.05;100.00;96755.22;5110326;28;20397;-92
2023/05/16 08:09:02;;;;;;;0.70;0.70;;;;;;;14.16;100.00;96755.28;5103016;27;20039;-92
2023/05/16 08:11:27;;;;;;;1.17;0.70;;;;;;;13.91;100.00;96731.31;5103382;27;20040;-91
2023/05/16 08:13:53;;;;;;;1.30;0.80;;;;;;;13.97;100.00;96737.06;5103809;27;20520;-93
2023/05/16 08:16:21;;;;;;;3.72;0.90;;;;;;;14.26;100.00;96770.63;5100717;27;20061;-91
2023/05/16 08:18:46;;;;;;;1.63;1.00;;;;;;;14.12;100.00;96752.97;5104356;27;20492;-93
2023/05/16 08:21:13;;;;;;;0.80;0.80;;;;;;;14.07;100.00;96768.44;5102646;27;20187;-92
2023/05/16 08:23:39;;;;;;;3.40;0.98;;;;;;;14.06;100.00;96754.25;5099801;28;20097;-93
2023/05/16 08:26:05;;;;;;;2.65;1.10;;;;;;;14.00;100.00;96765.38;5104039;27;20554;-93
2023/05/16 08:28:31;;;;;;;1.80;1.20;;;;;;;14.21;100.00;96775.47;5101283;27;20043;-93
2023/05/16 08:30:56;;;;;;;2.55;1.17;;;;;;;13.96;100.00;96767.41;5101914;27;20087;-92
2023/05/16 08:33:24;;;;;;;2.65;1.17;;;;;;;13.70;100.00;96745.25;5101956;27;20067;-93
2023/05/16 08:35:51;;;;;;;2.08;1.20;;;;;;;13.55;100.00;96757.03;5102983;28;20039;-93
2023/05/16 08:38:17;;;;;;;2.88;1.10;;;;;;;13.72;100.00;96793.25;5105709;27;20496;-93
2023/05/16 08:40:44;;;;;;;3.20;1.15;;;;;;;13.75;100.00;96769.00;5103413;27;20089;-94
2023/05/16 08:43:10;;;;;;;1.42;1.00;;;;;;;13.82;100.00;96774.75;5108761;27;20050;-93
2023/05/16 08:45:36;;;;;;;1.98;1.00;;;;;;;13.80;100.00;96780.19;5100493;27;20036;-93
2023/05/16 08:48:04;;;;;;;2.17;0.98;;;;;;;13.75;100.00;96775.19;5100645;27;20408;-91
2023/05/16 08:50:31;;;;;;;2.38;0.90;;;;;;;13.82;100.00;96804.97;5103056;28;20051;-93
2023/05/16 08:53:04;;;;;;;1.45;0.77;;;;;;;13.64;100.00;96783.13;5102678;27;20073;-93
2023/05/16 08:55:30;;;;;;;1.20;1.10;;;;;;;13.63;100.00;96785.88;5102949;28;20032;-92
2023/05/16 08:57:56;;;;;;;2.42;1.02;;;;;;;13.63;100.00;96781.38;5105983;28;20121;-91
2023/05/16 09:00:23;;;;;;;1.42;0.80;;;;;;;13.77;100.00;96805.31;5098654;28;20043;-93
2023/05/16 09:02:50;;;;;;;3.00;1.38;;;;;;;13.67;100.00;96785.56;5108904;28;20066;-95
2023/05/16 09:05:16;;;;;;;2.78;1.20;;;;;;;13.92;100.00;96824.75;5106808;28;20047;-92
2023/05/16 09:07:44;;;;;;;0.93;0.90;;;;;;;13.72;100.00;96803.91;5110352;28;20043;-93
2023/05/16 09:10:11;;;;;;;2.13;1.20;;;;;;;13.74;100.00;96796.66;5119232;28;20047;-94
2023/05/16 09:12:38;;;;;;;1.30;1.15;;;;;;;13.82;100.00;96793.44;5105577;28;20046;-94
2023/05/16 09:15:06;;;;;;;2.85;1.23;;;;;;;13.93;100.00;96799.72;5121613;28;20043;-93
2023/05/16 09:17:35;;;;;;;4.75;1.38;;;;;;;14.16;100.00;96823.91;5120697;28;20095;-95
2023/05/16 09:20:08;;;;;;;2.40;1.10;;;;;;;13.91;100.00;96803.47;5103499;28;20502;-96
2023/05/16 09:22:34;;;;;;;3.17;1.60;;;;;;;14.14;100.00;96817.84;5101766;28;20044;-94
2023/05/16 09:25:01;;;;;;;1.00;1.00;;;;;;;14.10;100.00;96803.84;5100385;28;20097;-95
2023/05/16 09:27:30;;;;;;;1.17;1.00;;;;;;;13.93;100.00;96802.38;5102437;28;20055;-92
2023/05/16 09:29:57;;;;;;;3.63;1.30;;;;;;;13.85;100.00;96834.13;5101988;28;20048;-95
2023/05/16 09:32:24;;;;;;;3.95;1.20;;;;;;;13.65;100.00;96806.19;5101934;28;20047;-95
2023/05/16 09:34:52;;;;;;;3.33;1.20;;;;;;;13.67;100.00;96812.25;5103487;28;20039;-95
2023/05/16 09:37:18;;;;;;;2.30;1.10;;;;;;;13.86;100.00;96814.50;5103317;28;20043;-94
2023/05/16 09:39:46;;;;;;;1.85;1.08;;;;;;;14.09;100.00;96828.00;5103804;28;20044;-94
2023/05/16 09:42:14;;;;;;;1.23;0.82;;;;;;;14.28;100.00;96831.03;5102597;28;20127;-94
2023/05/16 09:44:44;;;;;;;2.40;1.20;;;;;;;13.96;100.00;96814.66;5103665;28;20043;-94
2023/05/16 09:47:13;;;;;;;2.28;1.27;;;;;;;13.79;100.00;96809.69;5105696;28;20438;-95
2023/05/16 09:49:39;;;;;;;1.40;1.30;;;;;;;13.72;100.00;96818.13;5122627;28;20043;-94
2023/05/16 09:52:05;;;;;;;2.38;1.40;;;;;;;14.10;100.00;96835.91;5123291;28;20679;-95
2023/05/16 09:54:32;;;;;;;1.33;1.17;;;;;;;14.22;100.00;96819.94;5119071;28;20585;-93
2023/05/16 09:56:59;;;;;;;3.20;1.35;;;;;;;14.05;100.00;96813.16;5113607;28;20092;-93
2023/05/16 09:59:27;;;;;;;1.83;1.30;;;;;;;14.41;100.00;96819.47;5121014;28;20043;-92
2023/05/16 10:01:56;;;;;;;1.50;1.40;;;;;;;14.38;100.00;96828.56;5116249;28;20480;-93
2023/05/16 10:04:22;;;;;;;1.55;1.27;;;;;;;14.56;100.00;96827.22;5121266;28;20074;-91
2023/05/16 10:06:53;;;;;;;2.03;1.25;;;;;;;14.77;100.00;96816.75;5120796;28;20047;-96
2023/05/16 10:09:21;;;;;;;2.80;1.30;;;;;;;15.00;100.00;96844.44;5125258;28;20043;-95
2023/05/16 10:11:52;;;;;;;3.70;1.30;;;;;;;15.27;100.00;96862.06;5124793;28;20039;-94
2023/05/16 10:14:19;;;;;;;3.08;1.30;;;;;;;15.09;100.00;96828.66;5126154;27;20047;-96
2023/05/16 10:16:48;;;;;;;3.53;1.30;;;;;;;15.13;100.00;96830.97;5129319;27;20074;-96
2023/05/16 10:19:16;;;;;;;4.80;1.85;;;;;;;15.23;100.00;96827.59;5128494;27;20043;-96
2023/05/16 10:21:48;;;;;;;2.58;1.70;;;;;;;15.31;100.00;96835.88;5127687;27;20406;-94
2023/05/16 10:24:18;;;;;;;1.80;1.45;;;;;;;15.43;100.00;96851.00;5125767;27;20039;-94
2023/05/16 10:26:44;;;;;;;2.22;1.70;;;;;;;15.39;100.00;96855.72;5124554;27;20040;-93
2023/05/16 10:29:10;;;;;;;2.70;1.80;;;;;;;15.68;100.00;96868.72;5124882;27;20481;-94
2023/05/16 10:31:37;;;;;;;4.03;2.30;;;;;;;15.73;100.00;96846.94;5123793;27;20100;-95
2023/05/16 10:34:04;;;;;;;2.13;1.58;;;;;;;16.09;100.00;96875.34;5126007;27;20110;-93
2023/05/16 10:36:31;;;;;;;2.40;1.40;;;;;;;16.13;100.00;96841.94;5124920;27;20496;-93
2023/05/16 10:38:58;;;;;;;3.08;1.50;;;;;;;16.33;100.00;96850.19;5125256;27;20534;-94
2023/05/16 10:41:24;;;;;;;1.70;1.33;;;;;;;16.12;100.00;96850.97;5125452;27;20077;-93
2023/05/16 10:43:56;;;;;;;2.45;1.38;;;;;;;15.98;100.00;96854.75;5126418;27;20050;-96
2023/05/16 10:46:23;;;;;;;2.53;1.48;;;;;;;16.39;100.00;96860.44;5127440;27;20560;-96
2023/05/16 10:48:49;;;;;;;2.63;1.70;;;;;;;16.66;100.00;96880.66;5126430;27;20039;-93
2023/05/16 10:51:37;;;;;;;3.03;1.60;;;;;;;16.63;100.00;96853.09;5125742;27;20047;-95
2023/05/16 10:54:08;;;;;;;3.97;1.70;;;;;;;16.01;100.00;96862.53;5125955;27;20047;-95
2023/05/16 10:56:36;;;;;;;3.42;2.13;;;;;;;15.89;100.00;96841.22;5125265;27;20046;-94
2023/05/16 10:59:03;;;;;;;2.92;1.80;;;;;;;15.86;100.00;96871.81;5125373;27;20051;-94
2023/05/16 11:01:32;;;;;;;3.40;1.92;;;;;;;15.91;100.00;96850.00;5125614;27;20066;-95
2023/05/16 11:04:15;;;;;;;;;;;;;;;16.37;100.00;96887.41;5124514;27;20039;-94
2023/05/16 11:06:50;;;;;;;2.40;1.45;;;;;;;15.68;100.00;96855.31;5121810;27;19919;-95
2023/05/16 11:09:26;;;;;;;5.20;1.70;;;;;;;15.48;100.00;96893.50;5116339;28;20126;-93
2023/05/16 11:11:58;;;;;;;5.15;1.60;;;;;;;15.72;100.00;96885.41;5090937;28;20431;-94
2023/05/16 11:14:26;;;;;;;3.30;1.52;;;;;;;15.69;100.00;96857.00;5119203;27;20535;-94
2023/05/16 11:16:58;;;;;;;4.13;1.70;;;;;;;15.92;100.00;96868.66;5117079;27;20052;-94
2023/05/16 11:19:33;;;;;;;3.60;1.42;;;;;;;16.09;100.00;96874.47;5101988;28;20045;-93
2023/05/16 11:22:20;;;;;;;4.50;1.52;;;;;;;16.02;100.00;96858.88;5107010;27;20054;-95
2023/05/16 11:24:52;;;;;;;3.20;1.50;;;;;;;16.22;100.00;96873.41;5119926;27;20039;-94
2023/05/16 11:27:24;;;;;;;4.30;1.50;;;;;;;16.16;100.00;96871.19;5119626;27;20088;-94